sensor_id;sensor_type;location;lat;lon;timestamp;pressure;altitude;pressure_sealevel;temperature;humidity
19596;BME280;9945;46.010;8.946;2022-10-16T00:00:41;97682.41;;;17.13;86.16
19596;BME280;9945;46.010;8.946;2022-10-16T00:03:09;97685.03;;;17.13;86.53
19596;BME280;9945;46.010;8.946;2022-10-16T00:05:41;97698.09;;;17.14;86.04
19596;BME280;9945;46.010;8.946;2022-10-16T00:08:10;97685.34;;;17.18;86.26
19596;BME280;9945;46.010;8.946;2022-10-16T00:10:39;97691.00;;;17.15;86.23
19596;BME280;9945;46.010;8.946;2022-10-16T00:13:07;97687.25;;;17.09;87.39
19596;BME280;9945;46.010;8.946;2022-10-16T00:15:34;97681.75;;;17.11;86.58
19596;BME280;9945;46.010;8.946;2022-10-16T00:18:03;97688.53;;;17.13;87.10
19596;BME280;9945;46.010;8.946;2022-10-16T00:20:30;97690.81;;;17.16;87.57
19596;BME280;9945;46.010;8.946;2022-10-16T00:22:58;97685.53;;;17.16;86.59
19596;BME280;9945;46.010;8.946;2022-10-16T00:25:25;97687.53;;;17.14;86.24
19596;BME280;9945;46.010;8.946;2022-10-16T00:27:54;97690.81;;;17.16;87.58
19596;BME280;9945;46.010;8.946;2022-10-16T00:30:21;97689.81;;;17.17;87.51
19596;BME280;9945;46.010;8.946;2022-10-16T00:32:48;97688.25;;;17.08;87.52
19596;BME280;9945;46.010;8.946;2022-10-16T00:35:15;97685.59;;;17.08;86.56
19596;BME280;9945;46.010;8.946;2022-10-16T00:37:42;97680.31;;;17.08;87.87
19596;BME280;9945;46.010;8.946;2022-10-16T00:40:10;97684.75;;;17.08;87.38
19596;BME280;9945;46.010;8.946;2022-10-16T00:42:37;97686.09;;;17.03;87.14
19596;BME280;9945;46.010;8.946;2022-10-16T00:45:07;97695.91;;;16.95;87.57
19596;BME280;9945;46.010;8.946;2022-10-16T00:47:37;97698.13;;;16.91;88.08
19596;BME280;9945;46.010;8.946;2022-10-16T00:50:08;97694.69;;;16.83;88.29
19596;BME280;9945;46.010;8.946;2022-10-16T00:52:36;97701.97;;;16.81;87.22
19596;BME280;9945;46.010;8.946;2022-10-16T00:55:06;97699.16;;;16.82;88.88
19596;BME280;9945;46.010;8.946;2022-10-16T00:57:35;97700.63;;;16.85;88.96
19596;BME280;9945;46.010;8.946;2022-10-16T01:00:07;97699.00;;;16.84;88.17
19596;BME280;9945;46.010;8.946;2022-10-16T01:02:34;97699.78;;;16.84;89.47
19596;BME280;9945;46.010;8.946;2022-10-16T01:05:02;97687.09;;;16.80;89.55
19596;BME280;9945;46.010;8.946;2022-10-16T01:07:38;97689.75;;;16.80;89.46
19596;BME280;9945;46.010;8.946;2022-10-16T01:10:14;97688.91;;;16.79;89.09
19596;BME280;9945;46.010;8.946;2022-10-16T01:12:48;97688.59;;;16.82;89.58
19596;BME280;9945;46.010;8.946;2022-10-16T01:15:25;97686.75;;;16.83;89.11
19596;BME280;9945;46.010;8.946;2022-10-16T01:17:57;97689.09;;;16.78;89.92
19596;BME280;9945;46.010;8.946;2022-10-16T01:20:29;97690.09;;;16.77;88.40
19596;BME280;9945;46.010;8.946;2022-10-16T01:23:04;97687.75;;;16.82;90.04
19596;BME280;9945;46.010;8.946;2022-10-16T01:25:42;97686.94;;;16.81;89.34
19596;BME280;9945;46.010;8.946;2022-10-16T01:28:19;97692.94;;;16.75;89.21
19596;BME280;9945;46.010;8.946;2022-10-16T01:30:52;97690.09;;;16.77;88.76
19596;BME280;9945;46.010;8.946;2022-10-16T01:33:26;97689.75;;;16.80;88.72
19596;BME280;9945;46.010;8.946;2022-10-16T01:36:02;97685.13;;;16.82;89.22
19596;BME280;9945;46.010;8.946;2022-10-16T01:38:33;97687.59;;;16.83;88.13
19596;BME280;9945;46.010;8.946;2022-10-16T01:41:06;97700.44;;;16.86;89.21
19596;BME280;9945;46.010;8.946;2022-10-16T01:43:39;97687.59;;;16.83;88.90
19596;BME280;9945;46.010;8.946;2022-10-16T01:46:08;97690.03;;;16.85;88.42
19596;BME280;9945;46.010;8.946;2022-10-16T01:48:37;97687.03;;;16.88;87.83
19596;BME280;9945;46.010;8.946;2022-10-16T01:51:06;97689.53;;;16.89;88.40
19596;BME280;9945;46.010;8.946;2022-10-16T01:53:35;97698.13;;;16.91;88.51
19596;BME280;9945;46.010;8.946;2022-10-16T01:56:05;97692.00;;;16.91;88.24
19596;BME280;9945;46.010;8.946;2022-10-16T01:58:39;97697.28;;;16.91;87.13
19596;BME280;9945;46.010;8.946;2022-10-16T02:01:09;97694.97;;;16.88;87.46
19596;BME280;9945;46.010;8.946;2022-10-16T02:03:40;97694.81;;;16.89;88.92
19596;BME280;9945;46.010;8.946;2022-10-16T02:06:09;97695.63;;;16.90;88.25
19596;BME280;9945;46.010;8.946;2022-10-16T02:08:36;97691.19;;;16.90;88.58
19596;BME280;9945;46.010;8.946;2022-10-16T02:11:04;97690.34;;;16.90;88.11
19596;BME280;9945;46.010;8.946;2022-10-16T02:13:34;97697.47;;;16.89;88.88
19596;BME280;9945;46.010;8.946;2022-10-16T02:16:05;97693.81;;;16.90;88.07
19596;BME280;9945;46.010;8.946;2022-10-16T02:18:32;97689.69;;;16.88;88.69
19596;BME280;9945;46.010;8.946;2022-10-16T02:21:02;97689.41;;;16.83;87.68
19596;BME280;9945;46.010;8.946;2022-10-16T02:23:45;97686.09;;;16.81;89.05
19596;BME280;9945;46.010;8.946;2022-10-16T02:26:16;97685.13;;;16.82;89.49
19596;BME280;9945;46.010;8.946;2022-10-16T02:28:52;97687.75;;;16.82;88.26
19596;BME280;9945;46.010;8.946;2022-10-16T02:31:25;97692.41;;;16.80;87.70
19596;BME280;9945;46.010;8.946;2022-10-16T02:33:55;97692.41;;;16.80;89.27
19596;BME280;9945;46.010;8.946;2022-10-16T02:36:25;97689.75;;;16.80;89.19
19596;BME280;9945;46.010;8.946;2022-10-16T02:38:53;97693.75;;;16.76;89.34
19596;BME280;9945;46.010;8.946;2022-10-16T02:41:21;97691.91;;;16.76;89.76
19596;BME280;9945;46.010;8.946;2022-10-16T02:43:48;97694.09;;;16.73;89.55
19596;BME280;9945;46.010;8.946;2022-10-16T02:46:16;97698.38;;;16.74;89.34
19596;BME280;9945;46.010;8.946;2022-10-16T02:48:45;97701.38;;;16.71;89.75
19596;BME280;9945;46.010;8.946;2022-10-16T02:51:12;97706.50;;;16.72;89.09
19596;BME280;9945;46.010;8.946;2022-10-16T02:53:39;97710.63;;;16.75;88.70
19596;BME280;9945;46.010;8.946;2022-10-16T02:56:06;97697.41;;;16.75;89.87
19596;BME280;9945;46.010;8.946;2022-10-16T02:58:33;97702.69;;;16.75;88.69
19596;BME280;9945;46.010;8.946;2022-10-16T03:01:00;97708.44;;;16.78;89.16
19596;BME280;9945;46.010;8.946;2022-10-16T03:03:27;97698.34;;;16.82;88.16
19596;BME280;9945;46.010;8.946;2022-10-16T03:05:55;97707.09;;;16.82;87.57
19596;BME280;9945;46.010;8.946;2022-10-16T03:08:22;97709.09;;;16.80;89.38
19596;BME280;9945;46.010;8.946;2022-10-16T03:10:51;97706.16;;;16.75;88.47
19596;BME280;9945;46.010;8.946;2022-10-16T03:13:18;97709.63;;;16.76;89.33
19596;BME280;9945;46.010;8.946;2022-10-16T03:15:46;97714.72;;;16.77;89.26
19596;BME280;9945;46.010;8.946;2022-10-16T03:18:13;97717.34;;;16.77;89.48
19596;BME280;9945;46.010;8.946;2022-10-16T03:20:42;97722.66;;;16.77;88.24
19596;BME280;9945;46.010;8.946;2022-10-16T03:23:10;97718.34;;;16.76;89.90
19596;BME280;9945;46.010;8.946;2022-10-16T03:25:37;97713.25;;;16.75;89.97
19596;BME280;9945;46.010;8.946;2022-10-16T03:28:04;97727.81;;;16.71;89.12
19596;BME280;9945;46.010;8.946;2022-10-16T03:30:32;97728.97;;;16.68;90.17
19596;BME280;9945;46.010;8.946;2022-10-16T03:32:58;97720.41;;;16.66;89.78
19596;BME280;9945;46.010;8.946;2022-10-16T03:35:25;97722.88;;;16.68;89.88
19596;BME280;9945;46.010;8.946;2022-10-16T03:37:52;97719.22;;;16.69;89.72
19596;BME280;9945;46.010;8.946;2022-10-16T03:40:20;97723.69;;;16.68;89.20
19596;BME280;9945;46.010;8.946;2022-10-16T03:42:47;97723.69;;;16.68;89.67
19596;BME280;9945;46.010;8.946;2022-10-16T03:45:14;97731.00;;;16.66;90.85
19596;BME280;9945;46.010;8.946;2022-10-16T03:47:41;97732.97;;;16.64;89.70
19596;BME280;9945;46.010;8.946;2022-10-16T03:50:08;97733.31;;;16.61;90.56
19596;BME280;9945;46.010;8.946;2022-10-16T03:52:35;97732.16;;;16.55;90.65
19596;BME280;9945;46.010;8.946;2022-10-16T03:55:02;97736.97;;;16.52;89.86
19596;BME280;9945;46.010;8.946;2022-10-16T03:57:31;97729.41;;;16.49;91.21
19596;BME280;9945;46.010;8.946;2022-10-16T03:59:58;97727.09;;;16.46;91.80
19596;BME280;9945;46.010;8.946;2022-10-16T04:02:24;97731.06;;;16.42;92.14
19596;BME280;9945;46.010;8.946;2022-10-16T04:04:51;97734.72;;;16.41;92.22
19596;BME280;9945;46.010;8.946;2022-10-16T04:07:18;97734.06;;;16.39;90.88
19596;BME280;9945;46.010;8.946;2022-10-16T04:09:45;97731.75;;;16.36;90.69
19596;BME280;9945;46.010;8.946;2022-10-16T04:12:12;97737.41;;;16.33;92.42
19596;BME280;9945;46.010;8.946;2022-10-16T04:14:40;97736.22;;;16.35;91.57
19596;BME280;9945;46.010;8.946;2022-10-16T04:17:07;97747.97;;;16.33;91.51
19596;BME280;9945;46.010;8.946;2022-10-16T04:19:34;97747.13;;;16.32;90.89
19596;BME280;9945;46.010;8.946;2022-10-16T04:22:01;97747.97;;;16.33;92.18
19596;BME280;9945;46.010;8.946;2022-10-16T04:24:28;97742.03;;;16.31;91.84
19596;BME280;9945;46.010;8.946;2022-10-16T04:26:55;97749.94;;;16.31;91.49
19596;BME280;9945;46.010;8.946;2022-10-16T04:29:22;97749.13;;;16.30;91.63
19596;BME280;9945;46.010;8.946;2022-10-16T04:31:50;97750.09;;;16.29;92.53
19596;BME280;9945;46.010;8.946;2022-10-16T04:34:17;97755.72;;;16.26;92.91
19596;BME280;9945;46.010;8.946;2022-10-16T04:36:44;97755.56;;;16.27;91.58
19596;BME280;9945;46.010;8.946;2022-10-16T04:39:13;97758.19;;;16.27;92.97
19596;BME280;9945;46.010;8.946;2022-10-16T04:41:40;97765.31;;;16.27;91.93
19596;BME280;9945;46.010;8.946;2022-10-16T04:44:07;97761.38;;;16.23;92.03
19596;BME280;9945;46.010;8.946;2022-10-16T04:46:33;97769.13;;;16.24;93.28
19596;BME280;9945;46.010;8.946;2022-10-16T04:49:02;97773.22;;;16.27;92.09
19596;BME280;9945;46.010;8.946;2022-10-16T04:51:29;97771.25;;;16.29;92.48
19596;BME280;9945;46.010;8.946;2022-10-16T04:53:56;97762.34;;;16.30;91.79
19596;BME280;9945;46.010;8.946;2022-10-16T04:56:23;97765.97;;;16.29;93.41
19596;BME280;9945;46.010;8.946;2022-10-16T04:58:50;97768.28;;;16.32;92.08
19596;BME280;9945;46.010;8.946;2022-10-16T05:01:17;97772.22;;;16.36;91.65
19596;BME280;9945;46.010;8.946;2022-10-16T05:03:43;97774.69;;;16.38;91.71
19596;BME280;9945;46.010;8.946;2022-10-16T05:06:12;97773.69;;;16.39;92.68
19596;BME280;9945;46.010;8.946;2022-10-16T05:08:39;97773.53;;;16.40;91.14
19596;BME280;9945;46.010;8.946;2022-10-16T05:11:06;97771.88;;;16.39;91.32
19596;BME280;9945;46.010;8.946;2022-10-16T05:13:33;97772.22;;;16.36;92.48
19596;BME280;9945;46.010;8.946;2022-10-16T05:16:00;97772.22;;;16.36;92.79
19596;BME280;9945;46.010;8.946;2022-10-16T05:18:27;97765.63;;;16.32;92.79
19596;BME280;9945;46.010;8.946;2022-10-16T05:20:54;97766.28;;;16.34;92.16
19596;BME280;9945;46.010;8.946;2022-10-16T05:23:22;97769.75;;;16.35;91.11
19596;BME280;9945;46.010;8.946;2022-10-16T05:25:53;97776.69;;;16.36;90.78
19596;BME280;9945;46.010;8.946;2022-10-16T05:28:20;97778.50;;;16.35;91.44
19596;BME280;9945;46.010;8.946;2022-10-16T05:30:47;97781.97;;;16.36;91.81
19596;BME280;9945;46.010;8.946;2022-10-16T05:33:14;97780.81;;;16.38;92.00
19596;BME280;9945;46.010;8.946;2022-10-16T05:35:41;97779.00;;;16.39;92.14
19596;BME280;9945;46.010;8.946;2022-10-16T05:38:10;97783.91;;;16.42;92.25
19596;BME280;9945;46.010;8.946;2022-10-16T05:40:38;97786.09;;;16.38;92.67
19596;BME280;9945;46.010;8.946;2022-10-16T05:43:05;97786.41;;;16.35;91.13
19596;BME280;9945;46.010;8.946;2022-10-16T05:45:32;97791.06;;;16.33;92.78
19596;BME280;9945;46.010;8.946;2022-10-16T05:47:59;97785.97;;;16.32;93.08
19596;BME280;9945;46.010;8.946;2022-10-16T05:50:26;97792.91;;;16.33;93.03
19596;BME280;9945;46.010;8.946;2022-10-16T05:52:53;97791.88;;;16.34;92.36
19596;BME280;9945;46.010;8.946;2022-10-16T05:55:20;97803.09;;;16.36;91.25
19596;BME280;9945;46.010;8.946;2022-10-16T05:57:48;97811.41;;;16.33;92.10
19596;BME280;9945;46.010;8.946;2022-10-16T06:00:15;97807.59;;;16.27;91.69
19596;BME280;9945;46.010;8.946;2022-10-16T06:02:42;97810.38;;;16.34;91.78
19596;BME280;9945;46.010;8.946;2022-10-16T06:05:09;97809.22;;;16.36;92.00
19596;BME280;9945;46.010;8.946;2022-10-16T06:07:36;97809.72;;;16.40;91.49
19596;BME280;9945;46.010;8.946;2022-10-16T06:10:04;97813.81;;;16.42;92.47
19596;BME280;9945;46.010;8.946;2022-10-16T06:12:32;97812.00;;;16.43;92.17
19596;BME280;9945;46.010;8.946;2022-10-16T06:15:00;97822.09;;;16.47;91.59
19596;BME280;9945;46.010;8.946;2022-10-16T06:17:27;97813.00;;;16.50;91.63
19596;BME280;9945;46.010;8.946;2022-10-16T06:19:54;97821.06;;;16.56;91.95
19596;BME280;9945;46.010;8.946;2022-10-16T06:22:20;97821.22;;;16.63;90.42
19596;BME280;9945;46.010;8.946;2022-10-16T06:24:47;97827.16;;;16.73;90.33
19596;BME280;9945;46.010;8.946;2022-10-16T06:27:15;97830.09;;;16.78;90.39
19596;BME280;9945;46.010;8.946;2022-10-16T06:29:42;97832.25;;;16.83;89.55
19596;BME280;9945;46.010;8.946;2022-10-16T06:32:11;97833.53;;;16.87;90.60
19596;BME280;9945;46.010;8.946;2022-10-16T06:34:38;97841.59;;;16.93;89.15
19596;BME280;9945;46.010;8.946;2022-10-16T06:37:06;97847.88;;;17.00;88.99
19596;BME280;9945;46.010;8.946;2022-10-16T06:39:33;97852.47;;;17.07;88.66
19596;BME280;9945;46.010;8.946;2022-10-16T06:42:00;97853.41;;;17.14;88.25
19596;BME280;9945;46.010;8.946;2022-10-16T06:44:27;97859.66;;;17.21;88.11
19596;BME280;9945;46.010;8.946;2022-10-16T06:46:53;97857.63;;;17.31;88.83
19596;BME280;9945;46.010;8.946;2022-10-16T06:49:22;97855.41;;;17.43;87.64
19596;BME280;9945;46.010;8.946;2022-10-16T06:51:49;97856.34;;;17.50;86.94
19596;BME280;9945;46.010;8.946;2022-10-16T06:54:16;97866.25;;;17.56;87.39
19596;BME280;9945;46.010;8.946;2022-10-16T06:56:43;97873.19;;;17.57;87.33
19596;BME280;9945;46.010;8.946;2022-10-16T06:59:10;97872.53;;;17.55;86.62
19596;BME280;9945;46.010;8.946;2022-10-16T07:01:37;97875.50;;;17.60;86.45
19596;BME280;9945;46.010;8.946;2022-10-16T07:04:04;97875.66;;;17.66;86.76
19596;BME280;9945;46.010;8.946;2022-10-16T07:06:33;97883.03;;;17.71;85.68
19596;BME280;9945;46.010;8.946;2022-10-16T07:09:03;97886.19;;;17.74;85.61
19596;BME280;9945;46.010;8.946;2022-10-16T07:11:31;97887.13;;;17.82;85.14
19596;BME280;9945;46.010;8.946;2022-10-16T07:13:57;97894.19;;;17.89;85.46
19596;BME280;9945;46.010;8.946;2022-10-16T07:16:26;97894.50;;;17.94;84.63
19596;BME280;9945;46.010;8.946;2022-10-16T07:18:54;97904.38;;;18.00;84.38
19596;BME280;9945;46.010;8.946;2022-10-16T07:21:24;97904.81;;;18.04;84.12
19596;BME280;9945;46.010;8.946;2022-10-16T07:23:54;97907.72;;;18.17;84.48
19596;BME280;9945;46.010;8.946;2022-10-16T07:26:22;97913.78;;;18.26;83.27
19596;BME280;9945;46.010;8.946;2022-10-16T07:28:50;97911.41;;;18.31;82.43
19596;BME280;9945;46.010;8.946;2022-10-16T07:31:19;97911.88;;;18.34;82.32
19596;BME280;9945;46.010;8.946;2022-10-16T07:33:47;97914.88;;;18.31;81.69
19596;BME280;9945;46.010;8.946;2022-10-16T07:36:16;97917.00;;;18.36;81.17
19596;BME280;9945;46.010;8.946;2022-10-16T07:38:43;97922.00;;;18.31;82.30
19596;BME280;9945;46.010;8.946;2022-10-16T07:41:13;97921.75;;;18.40;81.22
19596;BME280;9945;46.010;8.946;2022-10-16T07:43:45;97923.06;;;18.44;80.76
19596;BME280;9945;46.010;8.946;2022-10-16T07:46:13;97927.88;;;18.41;80.41
19596;BME280;9945;46.010;8.946;2022-10-16T07:48:40;97932.47;;;18.47;80.54
19596;BME280;9945;46.010;8.946;2022-10-16T07:51:11;97936.06;;;18.54;80.35
19596;BME280;9945;46.010;8.946;2022-10-16T07:53:39;97940.72;;;18.52;79.84
19596;BME280;9945;46.010;8.946;2022-10-16T07:56:06;97932.72;;;18.60;79.52
19596;BME280;9945;46.010;8.946;2022-10-16T07:58:35;97937.94;;;18.68;79.00
19596;BME280;9945;46.010;8.946;2022-10-16T08:01:04;97940.03;;;18.73;78.20
19596;BME280;9945;46.010;8.946;2022-10-16T08:03:31;97939.50;;;18.77;78.50
19596;BME280;9945;46.010;8.946;2022-10-16T08:05:58;97941.59;;;18.82;77.77
19596;BME280;9945;46.010;8.946;2022-10-16T08:08:26;97944.34;;;18.88;77.90
19596;BME280;9945;46.010;8.946;2022-10-16T08:10:53;97950.59;;;18.96;77.74
19596;BME280;9945;46.010;8.946;2022-10-16T08:13:20;97951.13;;;19.06;77.61
19596;BME280;9945;46.010;8.946;2022-10-16T08:15:48;97951.94;;;19.06;77.26
19596;BME280;9945;46.010;8.946;2022-10-16T08:18:16;97962.31;;;19.16;76.58
19596;BME280;9945;46.010;8.946;2022-10-16T08:20:43;97949.22;;;19.29;75.84
19596;BME280;9945;46.010;8.946;2022-10-16T08:23:11;97953.13;;;19.33;75.37
19596;BME280;9945;46.010;8.946;2022-10-16T08:25:39;97949.38;;;19.42;74.40
19596;BME280;9945;46.010;8.946;2022-10-16T08:28:06;97957.09;;;19.52;74.65
19596;BME280;9945;46.010;8.946;2022-10-16T08:30:34;97955.31;;;19.59;74.02
19596;BME280;9945;46.010;8.946;2022-10-16T08:33:03;97955.97;;;19.61;73.98
19596;BME280;9945;46.010;8.946;2022-10-16T08:35:30;97957.06;;;19.67;73.93
19596;BME280;9945;46.010;8.946;2022-10-16T08:37:57;97965.03;;;19.67;73.62
19596;BME280;9945;46.010;8.946;2022-10-16T08:40:25;97962.72;;;19.78;73.58
19596;BME280;9945;46.010;8.946;2022-10-16T08:46:14;97962.66;;;19.93;72.29
19596;BME280;9945;46.010;8.946;2022-10-16T08:48:47;97968.75;;;20.08;71.71
19596;BME280;9945;46.010;8.946;2022-10-16T08:51:19;97976.16;;;20.13;72.46
19596;BME280;9945;46.010;8.946;2022-10-16T08:53:51;97966.66;;;20.25;71.50
19596;BME280;9945;46.010;8.946;2022-10-16T08:56:19;97969.59;;;20.30;71.68
19596;BME280;9945;46.010;8.946;2022-10-16T08:58:46;97978.44;;;19.94;72.28
19596;BME280;9945;46.010;8.946;2022-10-16T09:01:15;97978.94;;;20.05;72.50
19596;BME280;9945;46.010;8.946;2022-10-16T09:03:58;97969.78;;;20.28;72.85
19596;BME280;9945;46.010;8.946;2022-10-16T09:06:44;97970.75;;;20.42;71.37
19596;BME280;9945;46.010;8.946;2022-10-16T09:09:25;97975.88;;;20.44;70.66
19596;BME280;9945;46.010;8.946;2022-10-16T09:12:02;97971.56;;;20.43;71.00
19596;BME280;9945;46.010;8.946;2022-10-16T09:14:52;97976.97;;;20.49;71.05
19596;BME280;9945;46.010;8.946;2022-10-16T09:17:30;97977.56;;;20.51;71.05
19596;BME280;9945;46.010;8.946;2022-10-16T09:20:12;97983.16;;;20.56;70.42
19596;BME280;9945;46.010;8.946;2022-10-16T09:22:40;97981.38;;;20.63;69.98
19596;BME280;9945;46.010;8.946;2022-10-16T09:25:11;97980.63;;;20.76;70.52
19596;BME280;9945;46.010;8.946;2022-10-16T09:27:39;97982.78;;;20.87;70.03
19596;BME280;9945;46.010;8.946;2022-10-16T09:30:12;97978.50;;;20.93;69.65
19596;BME280;9945;46.010;8.946;2022-10-16T09:32:40;97989.63;;;21.03;69.47
19596;BME280;9945;46.010;8.946;2022-10-16T09:35:14;97998.38;;;20.90;70.01
19596;BME280;9945;46.010;8.946;2022-10-16T09:37:43;97986.22;;;20.81;69.96
19596;BME280;9945;46.010;8.946;2022-10-16T09:40:24;97993.72;;;20.99;69.30
19596;BME280;9945;46.010;8.946;2022-10-16T09:42:55;97991.78;;;21.14;69.45
19596;BME280;9945;46.010;8.946;2022-10-16T09:45:24;97990.53;;;21.44;67.32
19596;BME280;9945;46.010;8.946;2022-10-16T09:47:51;97987.75;;;21.59;66.52
19596;BME280;9945;46.010;8.946;2022-10-16T09:50:24;97983.47;;;21.65;66.47
19596;BME280;9945;46.010;8.946;2022-10-16T09:53:03;97991.72;;;21.76;65.76
19596;BME280;9945;46.010;8.946;2022-10-16T09:55:31;97982.72;;;21.90;65.91
19596;BME280;9945;46.010;8.946;2022-10-16T10:00:24;97989.63;;;22.19;65.03
19596;BME280;9945;46.010;8.946;2022-10-16T10:02:52;97985.50;;;22.10;65.11
19596;BME280;9945;46.010;8.946;2022-10-16T10:05:23;97987.94;;;22.12;64.90
19596;BME280;9945;46.010;8.946;2022-10-16T10:07:55;97989.38;;;22.21;65.57
19596;BME280;9945;46.010;8.946;2022-10-16T10:10:25;97978.53;;;22.29;64.55
19596;BME280;9945;46.010;8.946;2022-10-16T10:12:53;97981.81;;;22.38;64.46
19596;BME280;9945;46.010;8.946;2022-10-16T10:15:21;97983.28;;;22.60;63.53
19596;BME280;9945;46.010;8.946;2022-10-16T10:17:50;97990.28;;;22.81;63.15
19596;BME280;9945;46.010;8.946;2022-10-16T10:20:27;97982.47;;;23.12;60.76
19596;BME280;9945;46.010;8.946;2022-10-16T10:22:54;97976.22;;;23.45;59.22
19596;BME280;9945;46.010;8.946;2022-10-16T10:25:30;97980.06;;;23.68;59.07
19596;BME280;9945;46.010;8.946;2022-10-16T10:28:17;97978.28;;;23.94;56.45
19596;BME280;9945;46.010;8.946;2022-10-16T10:30:56;97971.50;;;23.91;55.43
19596;BME280;9945;46.010;8.946;2022-10-16T10:33:31;97973.34;;;23.97;56.17
19596;BME280;9945;46.010;8.946;2022-10-16T10:36:12;97972.28;;;24.36;54.81
19596;BME280;9945;46.010;8.946;2022-10-16T10:38:47;97969.03;;;24.59;52.07
19596;BME280;9945;46.010;8.946;2022-10-16T10:41:27;97966.78;;;24.81;52.65
19596;BME280;9945;46.010;8.946;2022-10-16T10:44:09;97969.78;;;25.16;51.66
19596;BME280;9945;46.010;8.946;2022-10-16T10:46:43;97962.34;;;25.36;50.84
19596;BME280;9945;46.010;8.946;2022-10-16T10:49:44;97965.63;;;25.56;51.04
19596;BME280;9945;46.010;8.946;2022-10-16T10:55:16;97963.44;;;26.02;51.37
19596;BME280;9945;46.010;8.946;2022-10-16T10:57:57;97959.72;;;27.49;46.72
19596;BME280;9945;46.010;8.946;2022-10-16T11:00:40;97949.72;;;28.13;44.27
19596;BME280;9945;46.010;8.946;2022-10-16T11:03:16;97945.72;;;28.77;44.46
19596;BME280;9945;46.010;8.946;2022-10-16T11:05:49;97953.28;;;30.23;40.05
19596;BME280;9945;46.010;8.946;2022-10-16T11:08:19;97950.78;;;30.75;39.39
19596;BME280;9945;46.010;8.946;2022-10-16T11:10:52;97957.19;;;32.05;36.24
19596;BME280;9945;46.010;8.946;2022-10-16T11:13:29;97957.56;;;33.90;34.18
19596;BME280;9945;46.010;8.946;2022-10-16T11:16:00;97947.19;;;34.80;30.66
19596;BME280;9945;46.010;8.946;2022-10-16T11:18:33;97955.22;;;35.48;30.35
19596;BME280;9945;46.010;8.946;2022-10-16T11:21:08;97959.69;;;34.86;30.99
19596;BME280;9945;46.010;8.946;2022-10-16T11:23:42;97954.38;;;34.66;30.72
19596;BME280;9945;46.010;8.946;2022-10-16T11:26:17;97966.22;;;36.47;28.44
19596;BME280;9945;46.010;8.946;2022-10-16T11:28:48;97957.03;;;37.07;27.93
19596;BME280;9945;46.010;8.946;2022-10-16T11:31:19;97949.06;;;37.38;26.90
19596;BME280;9945;46.010;8.946;2022-10-16T11:33:53;97961.41;;;39.07;24.87
19596;BME280;9945;46.010;8.946;2022-10-16T11:36:28;97956.13;;;38.88;24.75
19596;BME280;9945;46.010;8.946;2022-10-16T11:39:08;97956.13;;;39.11;24.58
19596;BME280;9945;46.010;8.946;2022-10-16T11:41:41;97947.88;;;38.88;24.68
19596;BME280;9945;46.010;8.946;2022-10-16T11:44:19;97954.09;;;40.30;23.02
19596;BME280;9945;46.010;8.946;2022-10-16T11:46:57;97960.53;;;41.41;21.67
19596;BME280;9945;46.010;8.946;2022-10-16T11:49:26;97949.41;;;43.85;19.23
19596;BME280;9945;46.010;8.946;2022-10-16T11:52:02;97939.97;;;43.37;19.84
19596;BME280;9945;46.010;8.946;2022-10-16T11:54:37;97939.28;;;42.62;20.03
19596;BME280;9945;46.010;8.946;2022-10-16T11:57:11;97945.81;;;43.85;19.40
19596;BME280;9945;46.010;8.946;2022-10-16T11:59:44;97938.63;;;46.75;16.94
19596;BME280;9945;46.010;8.946;2022-10-16T12:02:28;97945.41;;;47.20;16.60
19596;BME280;9945;46.010;8.946;2022-10-16T12:05:07;97941.19;;;48.31;15.39
19596;BME280;9945;46.010;8.946;2022-10-16T12:07:43;97928.34;;;46.76;16.31
19596;BME280;9945;46.010;8.946;2022-10-16T12:10:20;97917.75;;;43.95;18.76
19596;BME280;9945;46.010;8.946;2022-10-16T12:12:48;97928.38;;;45.04;17.44
19596;BME280;9945;46.010;8.946;2022-10-16T12:15:22;97935.75;;;48.12;15.14
19596;BME280;9945;46.010;8.946;2022-10-16T12:17:50;97939.44;;;49.27;14.33
19596;BME280;9945;46.010;8.946;2022-10-16T12:20:26;97934.06;;;50.14;13.47
19596;BME280;9945;46.010;8.946;2022-10-16T12:22:57;97936.16;;;50.31;13.87
19596;BME280;9945;46.010;8.946;2022-10-16T12:25:29;97940.72;;;49.84;13.45
19596;BME280;9945;46.010;8.946;2022-10-16T12:27:59;97921.34;;;48.70;13.94
19596;BME280;9945;46.010;8.946;2022-10-16T12:30:28;97916.94;;;47.49;15.12
19596;BME280;9945;46.010;8.946;2022-10-16T12:32:56;97931.59;;;47.46;15.11
19596;BME280;9945;46.010;8.946;2022-10-16T12:35:27;97919.19;;;47.17;15.07
19596;BME280;9945;46.010;8.946;2022-10-16T12:38:05;97924.44;;;48.58;14.47
19596;BME280;9945;46.010;8.946;2022-10-16T12:40:36;97925.91;;;48.48;14.03
19596;BME280;9945;46.010;8.946;2022-10-16T12:43:25;97929.50;;;47.92;14.79
19596;BME280;9945;46.010;8.946;2022-10-16T12:46:04;97928.78;;;47.99;15.00
19596;BME280;9945;46.010;8.946;2022-10-16T12:48:32;97922.69;;;47.86;14.84
19596;BME280;9945;46.010;8.946;2022-10-16T12:51:10;97921.38;;;46.85;15.02
19596;BME280;9945;46.010;8.946;2022-10-16T12:53:38;97919.66;;;46.19;15.69
19596;BME280;9945;46.010;8.946;2022-10-16T12:56:12;97926.09;;;47.04;15.68
19596;BME280;9945;46.010;8.946;2022-10-16T12:58:54;97934.81;;;47.02;15.11
19596;BME280;9945;46.010;8.946;2022-10-16T13:01:41;97932.75;;;47.22;14.99
19596;BME280;9945;46.010;8.946;2022-10-16T13:04:36;97928.56;;;46.28;15.19
19596;BME280;9945;46.010;8.946;2022-10-16T13:07:21;97928.13;;;46.65;14.95
19596;BME280;9945;46.010;8.946;2022-10-16T13:10:02;97939.34;;;46.14;15.88
19596;BME280;9945;46.010;8.946;2022-10-16T13:12:52;97953.69;;;46.36;15.59
19596;BME280;9945;46.010;8.946;2022-10-16T13:15:40;97964.09;;;47.00;14.63
19596;BME280;9945;46.010;8.946;2022-10-16T13:18:15;97972.75;;;46.21;15.51
19596;BME280;9945;46.010;8.946;2022-10-16T13:20:58;97959.50;;;45.01;15.95
19596;BME280;9945;46.010;8.946;2022-10-16T13:23:32;97948.50;;;45.33;16.02
19596;BME280;9945;46.010;8.946;2022-10-16T13:26:11;97944.66;;;45.21;15.98
19596;BME280;9945;46.010;8.946;2022-10-16T13:28:43;97936.88;;;45.43;16.11
19596;BME280;9945;46.010;8.946;2022-10-16T13:31:15;97925.97;;;43.55;17.88
19596;BME280;9945;46.010;8.946;2022-10-16T13:33:47;97920.69;;;44.54;17.62
19596;BME280;9945;46.010;8.946;2022-10-16T13:36:20;97899.09;;;43.92;17.83